createdAt,value
2022-09-30T00:01:51.438Z,1.80
2022-09-30T00:04:19.937Z,1.80
2022-09-30T00:06:47.061Z,1.90
2022-09-30T00:09:13.880Z,2.28
2022-09-30T00:11:41.184Z,2.50
2022-09-30T00:14:08.666Z,2.10
2022-09-30T00:16:35.892Z,2.58
2022-09-30T00:19:04.277Z,2.58
2022-09-30T00:21:33.881Z,2.60
2022-09-30T00:24:01.112Z,2.50
2022-09-30T00:26:27.691Z,2.78
2022-09-30T00:28:56.260Z,2.50
2022-09-30T00:31:23.792Z,2.72
2022-09-30T00:34:07.119Z,2.65
2022-09-30T00:36:39.201Z,2.58
2022-09-30T00:39:08.144Z,2.63
2022-09-30T00:41:35.175Z,2.63
2022-09-30T00:44:01.756Z,3.40
2022-09-30T00:46:44.574Z,2.88
2022-09-30T00:49:29.732Z,3.00
2022-09-30T00:51:57.967Z,2.50
2022-09-30T00:54:29.354Z,2.70
2022-09-30T00:56:58.201Z,2.90
2022-09-30T00:59:33.315Z,2.65
2022-09-30T01:02:01.193Z,2.80
2022-09-30T01:04:29.647Z,2.95
2022-09-30T01:06:59.266Z,3.13
2022-09-30T01:09:26.302Z,2.53
2022-09-30T01:11:53.130Z,2.45
2022-09-30T01:14:21.722Z,2.78
2022-09-30T01:16:54.123Z,2.80
2022-09-30T01:19:46.883Z,2.55
2022-09-30T01:22:32.128Z,2.53
2022-09-30T01:25:01.497Z,2.40
2022-09-30T01:27:34.120Z,2.28
2022-09-30T01:30:06.254Z,2.50
2022-09-30T01:32:51.599Z,2.60
2022-09-30T01:35:38.405Z,3.30
2022-09-30T01:38:23.864Z,2.38
2022-09-30T01:40:56.732Z,2.55
2022-09-30T01:43:49.620Z,2.50
2022-09-30T01:46:35.524Z,2.47
2022-09-30T01:49:22.607Z,2.40
2022-09-30T01:52:01.604Z,2.55
2022-09-30T01:54:40.391Z,3.10
2022-09-30T01:57:09.611Z,2.70
2022-09-30T01:59:38.891Z,2.50
2022-09-30T02:02:08.346Z,2.53
2022-09-30T02:04:38.608Z,2.50
2022-09-30T02:07:07.390Z,2.50
2022-09-30T02:09:38.653Z,2.47
2022-09-30T02:12:08.020Z,2.63
2022-09-30T02:14:41.076Z,2.67
2022-09-30T02:17:15.630Z,2.55
2022-09-30T02:19:45.272Z,2.60
2022-09-30T02:22:43.285Z,2.40
2022-09-30T02:25:11.674Z,2.22
2022-09-30T02:27:42.459Z,2.30
2022-09-30T02:30:10.363Z,2.80
2022-09-30T02:32:39.933Z,2.60
2022-09-30T02:35:09.562Z,2.70
2022-09-30T02:37:37.723Z,2.80
2022-09-30T02:40:07.987Z,2.90
2022-09-30T02:42:34.805Z,3.05
2022-09-30T02:45:03.401Z,2.92
2022-09-30T02:47:45.059Z,2.67
2022-09-30T02:50:16.096Z,2.67
2022-09-30T02:53:01.566Z,2.53
2022-09-30T02:55:34.025Z,2.53
2022-09-30T02:58:04.663Z,2.88
2022-09-30T03:00:31.582Z,2.35
2022-09-30T03:03:21.702Z,2.45
2022-09-30T03:05:49.811Z,2.60
2022-09-30T03:08:16.813Z,2.60
2022-09-30T03:10:44.038Z,3.20
2022-09-30T03:13:10.617Z,2.90
2022-09-30T03:15:41.584Z,2.55
2022-09-30T03:18:27.079Z,2.60
2022-09-30T03:21:03.503Z,2.55
2022-09-30T03:23:36.353Z,2.90
2022-09-30T03:26:14.720Z,2.47
2022-09-30T03:28:50.501Z,2.40
2022-09-30T03:31:29.220Z,2.80
2022-09-30T03:34:01.740Z,3.67
2022-09-30T03:36:33.758Z,2.60
2022-09-30T03:39:03.343Z,2.78
2022-09-30T03:41:32.826Z,2.55
2022-09-30T03:44:04.842Z,2.95
2022-09-30T03:46:36.964Z,2.78
2022-09-30T03:49:08.174Z,2.50
2022-09-30T03:51:38.539Z,2.90
2022-09-30T03:54:10.262Z,2.55
2022-09-30T03:56:37.788Z,2.45
2022-09-30T03:59:04.737Z,2.65
2022-09-30T04:01:31.365Z,2.45
2022-09-30T04:03:57.919Z,2.65
2022-09-30T04:06:25.289Z,2.30
2022-09-30T04:08:53.957Z,2.40
2022-09-30T04:11:20.874Z,2.67
2022-09-30T04:13:47.548Z,2.30
2022-09-30T04:16:14.258Z,2.55
2022-09-30T04:18:40.953Z,2.10
2022-09-30T04:21:08.471Z,2.95
2022-09-30T04:23:38.826Z,2.72
2022-09-30T04:26:06.902Z,2.53
2022-09-30T04:28:33.963Z,2.75
2022-09-30T04:31:01.022Z,2.67
2022-09-30T04:33:28.195Z,2.88
2022-09-30T04:35:58.695Z,2.45
2022-09-30T04:38:25.780Z,2.72
2022-09-30T04:40:52.926Z,3.00
2022-09-30T04:43:19.635Z,2.90
2022-09-30T04:45:46.656Z,2.80
2022-09-30T04:48:13.687Z,3.05
2022-09-30T04:50:40.512Z,2.42
2022-09-30T04:53:07.696Z,2.55
2022-09-30T04:55:34.708Z,2.70
2022-09-30T04:58:01.350Z,2.90
2022-09-30T05:00:28.012Z,2.45
2022-09-30T05:02:54.569Z,2.83
2022-09-30T05:05:21.212Z,2.60
2022-09-30T05:07:47.875Z,2.90
2022-09-30T05:10:14.475Z,2.63
2022-09-30T05:12:41.103Z,2.72
2022-09-30T05:15:08.393Z,3.50
2022-09-30T05:17:35.309Z,3.10
2022-09-30T05:20:02.377Z,3.55
2022-09-30T05:22:31.598Z,3.72
2022-09-30T05:24:58.262Z,4.25
2022-09-30T05:27:25.007Z,4.05
2022-09-30T05:29:51.607Z,4.32
2022-09-30T05:32:18.293Z,3.40
2022-09-30T05:34:44.907Z,3.13
2022-09-30T05:37:11.493Z,3.22
2022-09-30T05:39:38.385Z,3.63
2022-09-30T05:42:05.000Z,3.50
2022-09-30T05:44:31.597Z,3.50
2022-09-30T05:46:59.782Z,3.90
2022-09-30T05:49:26.567Z,3.38
2022-09-30T05:51:53.234Z,3.97
2022-09-30T05:54:20.187Z,3.78
2022-09-30T05:56:46.837Z,3.75
2022-09-30T05:59:13.575Z,3.88
2022-09-30T06:01:40.230Z,3.55
2022-09-30T06:04:06.892Z,4.18
2022-09-30T06:06:33.476Z,4.30
2022-09-30T06:09:00.392Z,3.53
2022-09-30T06:11:27.097Z,3.42
2022-09-30T06:13:53.722Z,3.28
2022-09-30T06:16:20.512Z,3.92
2022-09-30T06:18:47.440Z,4.05
2022-09-30T06:21:15.418Z,4.75
2022-09-30T06:23:42.065Z,4.25
2022-09-30T06:26:09.876Z,4.13
2022-09-30T06:28:36.578Z,4.03
2022-09-30T06:31:03.907Z,4.00
2022-09-30T06:33:30.513Z,4.13
2022-09-30T06:35:57.149Z,4.20
2022-09-30T06:38:23.995Z,4.10
2022-09-30T06:40:50.778Z,3.88
2022-09-30T06:43:20.906Z,3.85
2022-09-30T06:45:48.350Z,4.03
2022-09-30T06:48:20.874Z,3.80
2022-09-30T06:51:01.222Z,4.05
2022-09-30T06:53:29.425Z,3.10
2022-09-30T06:55:58.734Z,3.15
2022-09-30T06:58:25.662Z,3.20
2022-09-30T07:01:04.296Z,3.10
2022-09-30T07:03:34.985Z,3.47
2022-09-30T07:06:02.749Z,2.90
2022-09-30T07:08:31.547Z,3.45
2022-09-30T07:11:12.530Z,3.63
2022-09-30T07:13:39.662Z,3.50
2022-09-30T07:16:06.464Z,4.18
2022-09-30T07:18:33.133Z,2.95
2022-09-30T07:20:59.815Z,2.80
2022-09-30T07:23:27.138Z,2.95
2022-09-30T07:25:55.570Z,2.75
2022-09-30T07:28:27.811Z,3.58
2022-09-30T07:31:13.503Z,3.10
2022-09-30T07:33:43.449Z,3.35
2022-09-30T07:36:10.609Z,4.28
2022-09-30T07:38:38.591Z,3.42
2022-09-30T07:41:09.618Z,3.83
2022-09-30T07:43:40.304Z,3.75
2022-09-30T07:46:11.323Z,3.60
2022-09-30T07:48:47.773Z,3.45
2022-09-30T07:51:16.218Z,3.75
2022-09-30T07:53:43.599Z,3.38
2022-09-30T07:56:10.317Z,3.25
2022-09-30T07:58:37.400Z,3.33
2022-09-30T08:01:07.026Z,3.15
2022-09-30T08:03:34.352Z,3.20
2022-09-30T08:06:07.849Z,3.97
2022-09-30T08:08:34.755Z,3.95
2022-09-30T08:11:01.938Z,4.18
2022-09-30T08:13:28.562Z,4.30
2022-09-30T08:15:55.576Z,3.83
2022-09-30T08:18:22.347Z,4.22
2022-09-30T08:20:49.072Z,4.00
2022-09-30T08:23:15.691Z,4.25
2022-09-30T08:25:42.415Z,4.03
2022-09-30T08:28:09.227Z,3.83
2022-09-30T08:30:36.346Z,4.00
2022-09-30T08:33:02.981Z,4.07
2022-09-30T08:35:29.619Z,4.45
2022-09-30T08:37:56.508Z,4.05
2022-09-30T08:40:26.104Z,3.47
2022-09-30T08:43:01.566Z,3.10
2022-09-30T08:45:47.014Z,3.60
2022-09-30T08:48:36.873Z,2.97
2022-09-30T08:51:06.858Z,2.85
2022-09-30T08:53:35.517Z,3.17
2022-09-30T08:56:03.113Z,3.50
2022-09-30T08:58:31.498Z,3.15
2022-09-30T09:01:01.654Z,3.38
2022-09-30T09:03:30.304Z,3.88
2022-09-30T09:05:56.863Z,3.53
2022-09-30T09:08:26.581Z,3.60
2022-09-30T09:11:16.567Z,3.47
2022-09-30T09:13:53.795Z,3.38
2022-09-30T09:16:36.243Z,2.90
2022-09-30T09:19:15.832Z,3.15
2022-09-30T09:21:48.683Z,2.85
2022-09-30T09:24:17.866Z,2.70
2022-09-30T09:26:44.798Z,3.03
2022-09-30T09:29:14.439Z,2.80
2022-09-30T09:31:41.070Z,3.05
2022-09-30T09:34:09.590Z,3.22
2022-09-30T09:36:39.279Z,2.55
2022-09-30T09:39:17.886Z,3.10
2022-09-30T09:41:47.258Z,2.78
2022-09-30T09:44:32.546Z,2.55
2022-09-30T09:47:05.357Z,2.50
2022-09-30T09:49:32.945Z,2.38
2022-09-30T09:51:59.782Z,2.40
2022-09-30T09:54:31.246Z,2.40
2022-09-30T09:57:09.427Z,2.80
2022-09-30T09:59:36.814Z,2.40
2022-09-30T10:02:03.488Z,2.40
2022-09-30T10:04:32.751Z,2.45
2022-09-30T10:07:00.384Z,2.80
2022-09-30T10:09:29.908Z,2.40
2022-09-30T10:12:05.374Z,2.42
2022-09-30T10:14:33.036Z,2.30
2022-09-30T10:17:00.907Z,2.45
2022-09-30T10:19:29.197Z,2.10
2022-09-30T10:22:17.016Z,1.90
2022-09-30T10:24:43.627Z,1.95
2022-09-30T10:27:39.890Z,2.50
2022-09-30T10:30:06.740Z,2.45
2022-09-30T10:32:33.356Z,2.55
2022-09-30T10:35:04.300Z,2.65
2022-09-30T10:37:31.089Z,3.13
2022-09-30T10:40:02.628Z,2.55
2022-09-30T10:42:31.299Z,2.67
2022-09-30T10:45:25.629Z,2.80
2022-09-30T10:47:53.529Z,2.47
2022-09-30T10:50:22.089Z,2.67
2022-09-30T10:53:03.133Z,2.53
2022-09-30T10:55:34.038Z,2.63
2022-09-30T10:58:24.079Z,2.60
2022-09-30T11:00:59.257Z,2.20
2022-09-30T11:03:30.532Z,1.70
2022-09-30T11:05:58.874Z,2.05
2022-09-30T11:08:44.296Z,1.73
2022-09-30T11:11:29.144Z,1.73
2022-09-30T11:13:57.128Z,1.80
2022-09-30T11:16:33.168Z,2.20
2022-09-30T11:19:03.111Z,1.83
2022-09-30T11:21:35.583Z,2.00
2022-09-30T11:24:21.237Z,2.00
2022-09-30T11:26:56.228Z,2.20
2022-09-30T11:29:22.788Z,2.10
2022-09-30T11:31:58.602Z,2.22
2022-09-30T11:34:31.438Z,1.77
2022-09-30T11:37:24.111Z,1.65
2022-09-30T11:39:53.756Z,1.50
2022-09-30T11:42:39.353Z,1.40
2022-09-30T11:45:24.603Z,1.38
2022-09-30T11:47:51.218Z,1.45
2022-09-30T11:50:17.813Z,1.30
2022-09-30T11:52:50.266Z,1.50
2022-09-30T11:55:32.215Z,1.60
2022-09-30T11:58:36.284Z,1.55
2022-09-30T12:01:01.230Z,1.65
2022-09-30T12:03:35.351Z,1.80
2022-09-30T12:06:05.026Z,1.40
2022-09-30T12:08:36.646Z,1.33
2022-09-30T12:11:14.745Z,1.10
2022-09-30T12:13:44.482Z,0.98
2022-09-30T12:16:20.022Z,0.77
2022-09-30T12:18:51.288Z,1.00
2022-09-30T12:21:22.328Z,0.70
2022-09-30T12:23:53.894Z,0.60
2022-09-30T12:26:20.676Z,0.60
2022-09-30T12:29:21.621Z,0.65
2022-09-30T12:32:11.756Z,0.60
2022-09-30T12:35:02.086Z,0.70
2022-09-30T12:37:47.209Z,0.77
2022-09-30T12:40:22.813Z,0.60
2022-09-30T12:43:01.630Z,0.73
2022-09-30T12:45:33.713Z,0.70
2022-09-30T12:48:03.188Z,0.77
2022-09-30T12:50:34.949Z,0.60
2022-09-30T12:53:10.102Z,0.80
2022-09-30T12:55:39.205Z,0.63
2022-09-30T12:58:07.083Z,0.70
2022-09-30T13:00:34.853Z,0.60
2022-09-30T13:03:04.540Z,0.70
2022-09-30T13:05:31.143Z,0.60
2022-09-30T13:08:04.077Z,0.60
2022-09-30T13:10:36.913Z,0.63
2022-09-30T13:13:16.929Z,0.50
2022-09-30T13:15:44.688Z,0.70
2022-09-30T13:18:20.418Z,0.70
2022-09-30T13:20:55.141Z,0.80
2022-09-30T13:23:41.109Z,0.73
2022-09-30T13:26:29.426Z,0.95
2022-09-30T13:29:02.609Z,0.90
2022-09-30T13:31:52.288Z,1.00
2022-09-30T13:34:30.099Z,1.35
2022-09-30T13:36:58.487Z,0.80
2022-09-30T13:39:34.414Z,1.10
2022-09-30T13:42:05.072Z,0.90
2022-09-30T13:44:40.248Z,2.83
2022-09-30T13:47:18.413Z,0.90
2022-09-30T13:50:04.371Z,1.10
2022-09-30T13:52:35.045Z,1.00
2022-09-30T13:55:11.803Z,0.80
2022-09-30T13:58:01.464Z,0.70
2022-09-30T14:00:37.137Z,0.70
2022-09-30T14:03:26.651Z,0.70
2022-09-30T14:06:00.444Z,0.90
2022-09-30T14:08:46.251Z,0.50
2022-09-30T14:11:42.455Z,0.50
2022-09-30T14:14:15.728Z,0.50
2022-09-30T14:16:56.211Z,0.57
2022-09-30T14:19:46.202Z,0.60
2022-09-30T14:22:14.228Z,0.45
2022-09-30T14:24:41.604Z,0.73
2022-09-30T14:27:29.126Z,0.70
2022-09-30T14:30:06.664Z,0.70
2022-09-30T14:32:46.390Z,0.80
2022-09-30T14:35:31.820Z,0.90
2022-09-30T14:38:00.253Z,0.80
2022-09-30T14:40:31.232Z,0.95
2022-09-30T14:43:02.872Z,0.98
2022-09-30T14:45:31.539Z,1.20
2022-09-30T14:48:01.700Z,0.80
2022-09-30T14:50:31.331Z,0.90
2022-09-30T14:52:59.239Z,0.90
2022-09-30T14:55:34.248Z,0.80
2022-09-30T14:58:19.345Z,0.75
2022-09-30T15:00:49.197Z,0.70
2022-09-30T15:03:15.837Z,0.65
2022-09-30T15:05:42.511Z,0.90
2022-09-30T15:08:13.308Z,0.98
2022-09-30T15:10:46.854Z,0.80
2022-09-30T15:13:13.446Z,1.73
2022-09-30T15:15:40.740Z,1.00
2022-09-30T15:18:37.125Z,1.20
2022-09-30T15:21:22.486Z,0.80
2022-09-30T15:23:53.480Z,1.35
2022-09-30T15:26:21.815Z,0.70
2022-09-30T15:28:48.817Z,0.73
2022-09-30T15:31:24.685Z,1.00
2022-09-30T15:34:09.917Z,1.10
2022-09-30T15:36:37.302Z,1.20
2022-09-30T15:39:04.894Z,1.73
2022-09-30T15:41:38.035Z,1.70
2022-09-30T15:44:06.731Z,1.70
2022-09-30T15:46:37.954Z,1.50
2022-09-30T15:49:07.110Z,1.45
2022-09-30T15:51:39.222Z,1.23
2022-09-30T15:54:14.730Z,1.30
2022-09-30T15:56:43.217Z,1.58
2022-09-30T15:59:14.498Z,1.60
2022-09-30T16:01:42.706Z,1.48
2022-09-30T16:04:24.429Z,1.63
2022-09-30T16:06:52.536Z,1.63
2022-09-30T16:09:25.466Z,1.70
2022-09-30T16:12:08.757Z,1.40
2022-09-30T16:14:41.601Z,1.00
2022-09-30T16:17:18.037Z,1.00
2022-09-30T16:19:51.125Z,0.90
2022-09-30T16:22:33.097Z,1.15
2022-09-30T16:25:03.043Z,0.93
2022-09-30T16:27:31.342Z,0.98
2022-09-30T16:29:58.443Z,0.70
2022-09-30T16:32:25.279Z,0.90
2022-09-30T16:34:52.037Z,0.80
2022-09-30T16:37:19.329Z,1.30
2022-09-30T16:39:47.553Z,0.98
2022-09-30T16:42:15.105Z,1.05
2022-09-30T16:44:44.450Z,0.93
2022-09-30T16:47:15.339Z,1.20
2022-09-30T16:49:43.089Z,1.33
2022-09-30T16:52:10.270Z,1.10
2022-09-30T16:54:37.097Z,1.23
2022-09-30T16:57:03.968Z,1.13
2022-09-30T16:59:32.639Z,0.98
2022-09-30T17:02:00.209Z,1.30
2022-09-30T17:04:27.365Z,1.35
2022-09-30T17:06:56.645Z,1.33
2022-09-30T17:09:23.240Z,1.67
2022-09-30T17:11:50.358Z,4.72
2022-09-30T17:14:17.676Z,3.70
2022-09-30T17:16:45.139Z,3.58
2022-09-30T17:19:11.935Z,2.97
2022-09-30T17:21:38.908Z,2.05
2022-09-30T17:24:05.882Z,1.90
2022-09-30T17:26:33.021Z,1.70
2022-09-30T17:29:14.690Z,2.08
2022-09-30T17:31:47.081Z,2.03
2022-09-30T17:34:13.776Z,1.88
2022-09-30T17:36:40.436Z,1.30
2022-09-30T17:39:07.657Z,2.17
2022-09-30T17:41:52.966Z,1.75
2022-09-30T17:44:19.614Z,1.13
2022-09-30T17:46:46.252Z,1.33
2022-09-30T17:49:13.464Z,1.63
2022-09-30T17:51:40.198Z,1.70
2022-09-30T17:54:07.381Z,1.40
2022-09-30T17:56:34.372Z,1.35
2022-09-30T17:59:02.710Z,1.38
2022-09-30T18:01:31.221Z,1.60
2022-09-30T18:03:59.153Z,1.30
2022-09-30T18:06:25.895Z,1.60
2022-09-30T18:08:55.858Z,1.30
2022-09-30T18:11:23.373Z,1.45
2022-09-30T18:13:55.061Z,1.48
2022-09-30T18:16:24.409Z,1.63
2022-09-30T18:18:51.248Z,1.27
2022-09-30T18:21:17.805Z,1.30
2022-09-30T18:23:44.438Z,1.35
2022-09-30T18:26:11.122Z,1.42
2022-09-30T18:28:37.727Z,2.63
2022-09-30T18:31:05.525Z,2.58
2022-09-30T18:33:32.240Z,2.10
2022-09-30T18:36:03.065Z,1.35
2022-09-30T18:38:29.824Z,1.40
2022-09-30T18:40:56.482Z,1.60
2022-09-30T18:43:23.199Z,1.38
2022-09-30T18:45:56.891Z,1.75
2022-09-30T18:48:24.634Z,1.42
2022-09-30T18:50:51.621Z,1.80
2022-09-30T18:53:19.304Z,1.67
2022-09-30T18:55:46.074Z,1.80
2022-09-30T18:58:12.910Z,1.70
2022-09-30T19:00:40.140Z,1.70
2022-09-30T19:03:10.246Z,1.85
2022-09-30T19:05:36.923Z,1.90
2022-09-30T19:08:03.596Z,1.70
2022-09-30T19:10:30.539Z,2.13
2022-09-30T19:12:57.167Z,1.63
2022-09-30T19:15:23.825Z,2.05
2022-09-30T19:17:51.096Z,1.83
2022-09-30T19:20:17.945Z,1.88
2022-09-30T19:22:44.911Z,2.08
2022-09-30T19:25:11.874Z,1.83
2022-09-30T19:27:39.237Z,2.10
2022-09-30T19:30:08.987Z,2.45
2022-09-30T19:32:35.818Z,3.10
2022-09-30T19:35:06.331Z,2.00
2022-09-30T19:37:33.383Z,2.15
2022-09-30T19:40:07.999Z,1.92
2022-09-30T19:42:39.566Z,2.30
2022-09-30T19:45:06.669Z,2.78
2022-09-30T19:47:34.483Z,1.80
2022-09-30T19:50:01.392Z,1.80
2022-09-30T19:52:28.037Z,2.00
2022-09-30T19:54:58.241Z,2.05
2022-09-30T19:57:28.739Z,1.90
2022-09-30T19:59:55.423Z,1.70
2022-09-30T20:02:23.086Z,1.77
2022-09-30T20:04:51.131Z,1.77
2022-09-30T20:07:17.705Z,2.10
2022-09-30T20:09:45.102Z,1.90
2022-09-30T20:12:11.699Z,1.60
2022-09-30T20:14:56.742Z,1.55
2022-09-30T20:17:23.340Z,1.75
2022-09-30T20:20:09.960Z,1.52
2022-09-30T20:22:36.707Z,1.60
2022-09-30T20:25:03.522Z,1.73
2022-09-30T20:27:31.098Z,1.50
2022-09-30T20:29:57.700Z,1.48
2022-09-30T20:32:24.320Z,1.42
2022-09-30T20:34:52.057Z,1.50
2022-09-30T20:37:18.609Z,1.35
2022-09-30T20:39:46.221Z,1.30
2022-09-30T20:42:12.806Z,1.40
2022-09-30T20:44:39.482Z,0.93
2022-09-30T20:47:06.131Z,1.33
2022-09-30T20:49:32.725Z,1.10
2022-09-30T20:52:06.148Z,1.25
2022-09-30T20:54:35.416Z,1.02
2022-09-30T20:57:07.149Z,1.10
2022-09-30T20:59:34.092Z,1.00
2022-09-30T21:02:00.817Z,0.90
2022-09-30T21:04:27.453Z,0.93
2022-09-30T21:06:54.080Z,1.17
2022-09-30T21:09:20.707Z,0.85
2022-09-30T21:11:47.297Z,0.80
2022-09-30T21:14:17.492Z,0.90
2022-09-30T21:16:44.230Z,1.02
2022-09-30T21:19:10.983Z,1.10
2022-09-30T21:21:37.598Z,1.20
2022-09-30T21:24:04.284Z,1.00
2022-09-30T21:26:31.162Z,1.08
2022-09-30T21:28:57.969Z,1.25
2022-09-30T21:31:26.773Z,1.02
2022-09-30T21:33:55.214Z,1.30
2022-09-30T21:36:22.832Z,1.10
2022-09-30T21:38:49.818Z,1.30
2022-09-30T21:41:16.863Z,0.90
2022-09-30T21:43:47.036Z,1.10
2022-09-30T21:46:14.922Z,1.10
2022-09-30T21:48:42.354Z,0.77
2022-09-30T21:51:09.981Z,1.05
2022-09-30T21:53:36.812Z,1.27
2022-09-30T21:56:04.132Z,1.00
2022-09-30T21:58:32.043Z,1.00
2022-09-30T22:01:00.575Z,1.05
2022-09-30T22:03:28.944Z,0.90
2022-09-30T22:05:57.533Z,1.02
2022-09-30T22:08:24.282Z,1.42
2022-09-30T22:10:51.076Z,1.50
2022-09-30T22:13:18.026Z,1.55
2022-09-30T22:15:45.436Z,1.20
2022-09-30T22:18:15.099Z,1.42
2022-09-30T22:20:41.754Z,1.20
2022-09-30T22:23:08.385Z,1.40
2022-09-30T22:25:34.976Z,1.52
2022-09-30T22:28:01.953Z,1.77
2022-09-30T22:30:28.529Z,1.80
2022-09-30T22:33:13.551Z,1.33
2022-09-30T22:35:58.879Z,1.33
2022-09-30T22:38:25.763Z,1.63
2022-09-30T22:40:55.633Z,1.30
2022-09-30T22:43:24.433Z,1.70
2022-09-30T22:46:04.459Z,1.80
2022-09-30T22:48:31.903Z,1.70
2022-09-30T22:50:58.994Z,1.77
2022-09-30T22:53:26.367Z,2.00
2022-09-30T22:55:53.497Z,1.92
2022-09-30T22:58:20.614Z,1.60
2022-09-30T23:00:56.840Z,1.52
2022-09-30T23:03:25.413Z,2.17
2022-09-30T23:05:52.747Z,2.35
2022-09-30T23:08:19.438Z,1.80
2022-09-30T23:10:49.848Z,2.10
2022-09-30T23:13:22.456Z,2.15
2022-09-30T23:15:49.199Z,2.15
2022-09-30T23:18:17.226Z,1.98
2022-09-30T23:20:53.006Z,2.50
2022-09-30T23:23:20.059Z,2.78
2022-09-30T23:25:46.654Z,2.33
2022-09-30T23:28:13.892Z,2.40
2022-09-30T23:30:40.649Z,2.70
2022-09-30T23:33:09.509Z,2.80
2022-09-30T23:35:36.074Z,2.70
2022-09-30T23:38:02.715Z,3.40
2022-09-30T23:40:29.327Z,3.28
2022-09-30T23:42:57.331Z,2.72
2022-09-30T23:45:23.947Z,2.70
2022-09-30T23:47:50.507Z,3.00
2022-09-30T23:50:17.107Z,2.80
2022-09-30T23:52:44.355Z,3.15
2022-09-30T23:55:11.634Z,3.42
2022-09-30T23:57:38.320Z,3.08
